Sedgwick Reserve, California Weather observations

Data are for 10 minute period ending at time listed.
 Day   Time   Solar   Ave.   Ave.  Ave.  Vector  Max.   Baro.   Total    
  of    of     Rad.   Air    Rel.  Wind   Wind   Wind  Press.  Precip.   
Year   Day            Temp.  Hum.  Speed  Dir.   Gust                    
2017   (PST)  Kw/m2    F      %     mph   deg.    mph    mb.     in.     
-------------------------------------------------------------------------
 293   15:50   0.18   64.1    48   14.0   288    24.8   972.0    0.00 
 293   16:00   0.16   63.0    51   14.8   276    24.0   971.9    0.00 
 293   16:10   0.12   62.6    52   15.6   275    24.1   972.0    0.00 
 293   16:20   0.10   61.7    54   14.4   279    23.3   972.1    0.00 
 293   16:30   0.08   61.6    53   12.6   278    23.2   972.2    0.00 
 293   16:40   0.05   61.2    53   13.7   275    24.8   972.3    0.00 
 293   16:50   0.03   60.5    55   12.5   279    21.0   972.4    0.00 
 293   17:00   0.01   59.2    57   14.3   278    21.8   972.4    0.00 
 293   17:10   0.01   57.9    60   14.3   279    23.2   972.5    0.00 
 293   17:20   0.00   57.3    61   11.1   292    20.4   972.8    0.00 
 293   17:30   0.00   57.1    62   10.5   288    18.3   972.9    0.00 
 293   17:40   0.00   56.6    62   10.8   294    19.0   972.9    0.00 
 293   17:50   0.00   56.0    64   12.2   286    23.7   973.1    0.00 
 293   18:00   0.00   55.6    65   11.0   293    19.9   973.2    0.00 
 293   18:10   0.00   55.3    65   11.8   295    20.2   973.4    0.00 
 293   18:20   0.00   55.0    66   11.2   298    20.5   973.4    0.00 
 293   18:30   0.00   54.8    67   11.4   296    20.4   973.4    0.00 
 293   18:40   0.00   54.5    68   10.7   293    17.0   973.5    0.00 
 293   18:50   0.00   54.2    69   10.1   292    17.2   973.5    0.00 
 293   19:00   0.00   54.0    70   11.7   288    19.4   973.6    0.00 
 293   19:10   0.00   53.9    70   10.8   288    18.1   973.6    0.00 
 293   19:20   0.00   53.7    71   11.7   279    18.6   973.7    0.00 
 293   19:30   0.00   53.5    71   11.1   279    16.5   973.7    0.00 
 293   19:40   0.00   53.4    70   11.5   274    15.8   973.8    0.00 
 293   19:50   0.00   53.3    71   11.0   275    15.6   973.9    0.00 
 293   20:00   0.00   53.2    72    9.7   274    14.3   974.1    0.00 
 293   20:10   0.00   53.0    72    8.6   279    12.9   974.0    0.00 
 293   20:20   0.00   52.8    72    7.2   277    11.5   974.0    0.00 
 293   20:30   0.00   52.6    71    8.2   273    11.5   974.0    0.00 
 293   20:40   0.00   52.6    70    6.5   272     9.6   974.2    0.00 
 293   20:50   0.00   52.7    69    9.0   269    11.7   974.2    0.00 
 293   21:00   0.00   52.9    67    9.0   278    12.8   974.3    0.00 
 293   21:10   0.00   53.3    65    9.6   276    13.3   974.5    0.00 
 293   21:20   0.00   53.9    62    9.1   283    13.4   974.6    0.00 
 293   21:30   0.00   53.9    61    8.4   288    12.2   974.7    0.00 
 293   21:40   0.00   54.5    58    7.8   296    13.7   974.6    0.00 
 293   21:50   0.00   55.7    52    6.7   326    15.6   974.7    0.00 
 293   22:00   0.00   57.7    47    8.3   357    20.2   974.8    0.00 
 293   22:10   0.00   58.6    46    8.7   333    17.3   974.9    0.00 
 293   22:20   0.00   58.1    46    6.4   339    14.0   975.0    0.00 
 293   22:30   0.00   58.2    47    8.4   342    21.9   974.9    0.00 
 293   22:40   0.00   58.3    47    8.4   348    16.9   975.1    0.00 
 293   22:50   0.00   58.2    48    7.9   353    18.3   975.3    0.00 
 293   23:00   0.00   58.0    48   11.2     1    23.5   975.3    0.00 
 293   23:10   0.00   58.1    48    9.1   343    18.1   975.3    0.00 
 293   23:20   0.00   57.8    48    8.4   355    17.9   975.3    0.00 
 293   23:30   0.00   57.8    48    9.1   332    16.7   975.4    0.00 
 293   23:40   0.00   57.8    48   11.3   352    23.9   975.6    0.00 
 293   23:50   0.00   57.7    48   14.9     2    27.0   975.7    0.00 
 294    0:00   0.00   57.7    49   10.7   350    22.9   975.6    0.00 
 294    0:10   0.00   57.2    50    8.2   353    17.8   975.5    0.00 
 294    0:20   0.00   56.9    50    8.2   356    20.6   975.6    0.00 
 294    0:30   0.00   56.5    51    5.8   358    11.9   975.6    0.00 
 294    0:40   0.00   56.1    52    4.5    19    10.7   975.6    0.00 
 294    0:50   0.00   56.1    51    4.9   332    11.0   975.6    0.00 
 294    1:00   0.00   56.2    51    5.3   348    10.8   975.6    0.00 
 294    1:10   0.00   56.4    50    4.5    15    10.1   975.5    0.00 
 294    1:20   0.00   56.2    50    9.8    15    25.3   975.3    0.00 
 294    1:30   0.00   56.5    50    5.4     7    12.6   975.3    0.00 
 294    1:40   0.00   56.4    51    8.3    11    22.1   975.2    0.00 
 294    1:50   0.00   56.6    51   10.8     9    20.8   975.2    0.00 
 294    2:00   0.00   56.7    50    9.2    17    18.5   975.0    0.00 
 294    2:10   0.00   56.6    50   11.4    10    23.5   975.0    0.00 
 294    2:20   0.00   56.8    49    6.5    12    13.2   974.9    0.00 
 294    2:30   0.00   56.3    50    9.4    27    22.6   974.9    0.00 
 294    2:40   0.00   56.4    49    7.8    11    16.4   974.9    0.00 
 294    2:50   0.00   56.2    49    9.8     2    18.8   974.8    0.00 
 294    3:00   0.00   56.5    49    8.9     7    16.1   974.8    0.00 
 294    3:10   0.00   56.3    49    9.7   358    23.3   974.8    0.00 
 294    3:20   0.00   56.4    48    8.6     5    14.1   974.9    0.00 
 294    3:30   0.00   56.4    47    8.2    18    18.6   974.9    0.00 
 294    3:40   0.00   57.0    46    5.7     4    13.7   974.9    0.00 
 294    3:50   0.00   56.6    47    6.9   356    15.2   974.8    0.00 
 294    4:00   0.00   56.6    45    6.2     9    12.4   974.9    0.00 
 294    4:10   0.00   56.1    47   10.0    11    19.6   974.9    0.00 
 294    4:20   0.00   56.9    45    7.2     9    15.9   975.0    0.00 
 294    4:30   0.00   56.9    43    6.1     3    10.6   975.1    0.00 
 294    4:40   0.00   57.1    42    5.6     3    10.4   975.1    0.00 
 294    4:50   0.00   57.1    42    3.5   316     6.4   975.2    0.00 
 294    5:00   0.00   56.0    43    3.6   115     9.6   975.2    0.00 
 294    5:10   0.00   53.9    48    2.3   125     5.9   975.4    0.00 
 294    5:20   0.00   52.1    54    2.6   125     6.0   975.5    0.00 
 294    5:30   0.00   51.7    55    3.5   291     8.5   975.4    0.00 
 294    5:40   0.00   50.7    55    3.2   212     5.8   975.5    0.00 
 294    5:50   0.00   49.8    56    3.7   283     7.5   975.4    0.00 
 294    6:00   0.00   49.7    54    2.7   262     8.0   975.5    0.00 
 294    6:10   0.00   51.1    51    2.1   305     6.5   975.4    0.00 
 294    6:20   0.00   49.1    54    3.5   147     5.3   975.5    0.00 
 294    6:30   0.02   49.4    54    4.7   191     6.7   975.5    0.00 
 294    6:40   0.08   49.9    56    3.9   158     6.8   975.5    0.00 
 294    6:50   0.11   50.8    56    3.0   113     5.6   975.7    0.00 
 294    7:00   0.15   51.9    56    2.6   156     5.4   975.7    0.00 
 294    7:10   0.18   53.2    55    2.9   131     6.2   975.7    0.00 
 294    7:20   0.22   53.4    55    2.5   142     4.8   976.0    0.00 
 294    7:30   0.25   54.8    53    3.4    98     6.8   976.4    0.00 
 294    7:40   0.29   54.8    53    2.7   126     5.8   976.5    0.00 
 294    7:50   0.32   55.6    51    4.2   114     7.6   976.7    0.00 
 294    8:00   0.35   55.7    50    3.7   147     7.4   976.8    0.00 
 294    8:10   0.39   57.6    48    3.7   119     6.0   977.1    0.00 
 294    8:20   0.41   58.3    46    2.4    87     6.4   977.4    0.00 
 294    8:30   0.44   59.6    42    2.3   105     4.5   977.4    0.00 
 294    8:40   0.47   60.3    40    2.1   161     4.5   977.4    0.00 
 294    8:50   0.50   61.3    39    3.2   149     6.3   977.4    0.00 
 294    9:00   0.53   62.6    37    3.8   146     7.2   977.4    0.00 
 294    9:10   0.55   64.4    33    3.0   100     7.5   977.3    0.00 
 294    9:20   0.57   67.0    30    4.6   109     9.6   977.2    0.00 
 294    9:30   0.59   66.8    29    6.3   148    16.2   977.0    0.00 
 294    9:40   0.61   67.5    30    5.7   158     8.3   977.0    0.00 
 294    9:50   0.63   69.6    26    3.8    95    10.6   977.1    0.00 
 294   10:00   0.65   69.7    29    5.1   124    10.5   976.9    0.00 
 294   10:10   0.66   69.9    24    4.6   358     9.9   976.8    0.00 
 294   10:20   0.67   71.1    21    4.8    80     9.3   976.7    0.00 
 294   10:30   0.69   72.9    18    5.4    64    10.0   976.7    0.00 
 294   10:40   0.70   74.3    18    7.0    73    14.0   976.6    0.00 
 294   10:50   0.71   74.6    17    7.5    51    15.4   976.6    0.00 
 294   11:00   0.71   74.5    16    6.1    63    13.7   976.5    0.00 
 294   11:10   0.70   75.8    15    5.9    51    13.2   976.3    0.00 
 294   11:20   0.71   75.3    14    3.9    38    12.4   976.3    0.00 
 294   11:30   0.72   76.4    13    3.2   340     8.0   976.2    0.00 
 294   11:40   0.72   76.9    13    7.5    62    18.2   976.2    0.00 
 294   11:50   0.72   77.1    13    4.8   347    12.3   976.2    0.00 
 294   12:00   0.71   76.4    13    7.9   353    14.5   975.9    0.00 
 294   12:10   0.70   76.6    13    8.3     5    16.2   975.6    0.00 
 294   12:20   0.70   77.6    12    7.7    12    15.0   975.3    0.00 
 294   12:30   0.68   79.6    11    7.2    39    13.2   975.3    0.00 
 294   12:40   0.68   80.5    11    6.1    47    12.2   975.2    0.00 
 294   12:50   0.66   80.6    11    5.8    42    15.3   975.2    0.00 
 294   13:00   0.65   80.5    11    8.1    38    14.2   975.2    0.00 
 294   13:10   0.63   79.6    11    8.1    34    16.9   975.3    0.00 
 294   13:20   0.61   79.8    11    6.1    15    13.1   975.3    0.00 
 294   13:30   0.59   79.7    11    8.5    17    18.5   975.3    0.00 
 294   13:40   0.57   79.9    11    8.7     6    17.2   975.3    0.00 
 294   13:50   0.54   79.3    11   11.4     8    19.4   975.3    0.00 
 294   14:00   0.52   80.2    11   10.7     8    19.8   975.2    0.00 
 294   14:10   0.50   79.5    11   10.6     4    19.6   975.2    0.00 
 294   14:20   0.47   79.7    11    9.9    12    21.7   975.2    0.00 
 294   14:30   0.44   80.8    10    6.4    52    14.8   975.2    0.00 
 294   14:40   0.41   80.3    10    8.4    34    17.8   975.3    0.00 
 294   14:50   0.38   78.7    11   12.8    26    29.1   975.3    0.00 
 294   15:00   0.35   78.7    11    9.1    32    19.9   975.4    0.00 
 294   15:10   0.32   78.3    11    9.4    30    18.4   975.4    0.00 
 294   15:20   0.29   77.8    11    8.3    43    24.5   975.4    0.00 
 294   15:30   0.26   77.2    11   11.8    37    23.1   975.2    0.00 
 294   15:40   0.23   76.8    12   11.9    24    20.3   975.2    0.00 

Return to Sedgwick Reserve graphs page.


Western Regional Climate Center,wrcc@dri.edu